createdAt,value
2019-04-10T00:02:19.633Z,24.57
2019-04-10T00:04:48.091Z,24.93
2019-04-10T00:07:18.348Z,25.57
2019-04-10T00:09:47.493Z,24.00
2019-04-10T00:12:16.109Z,24.27
2019-04-10T00:14:44.984Z,24.23
2019-04-10T00:17:13.652Z,24.63
2019-04-10T00:19:42.085Z,24.83
2019-04-10T00:22:11.666Z,23.87
2019-04-10T00:24:40.327Z,24.03
2019-04-10T00:27:09.044Z,23.73
2019-04-10T00:29:38.365Z,24.20
2019-04-10T00:32:07.786Z,24.47
2019-04-10T00:34:36.412Z,22.97
2019-04-10T00:37:05.771Z,49.53
2019-04-10T00:39:34.867Z,55.57
2019-04-10T00:42:03.505Z,37.30
2019-04-10T00:44:32.007Z,27.00
2019-04-10T00:47:00.451Z,25.27
2019-04-10T00:49:29.415Z,22.40
2019-04-10T00:51:58.263Z,23.67
2019-04-10T00:54:26.797Z,24.03
2019-04-10T00:56:55.217Z,23.07
2019-04-10T00:59:24.157Z,24.37
2019-04-10T01:01:52.693Z,24.20
2019-04-10T01:04:21.124Z,24.33
2019-04-10T01:06:50.442Z,23.40
2019-04-10T01:09:19.474Z,23.57
2019-04-10T01:11:48.100Z,23.60
2019-04-10T01:14:16.535Z,23.53
2019-04-10T01:16:44.973Z,24.27
2019-04-10T01:19:13.407Z,23.23
2019-04-10T01:21:42.237Z,24.13
2019-04-10T01:24:11.099Z,23.73
2019-04-10T01:26:39.660Z,23.17
2019-04-10T01:29:09.194Z,23.97
2019-04-10T01:31:37.798Z,24.60
2019-04-10T01:34:07.310Z,24.40
2019-04-10T01:36:36.054Z,24.40
2019-04-10T01:39:08.675Z,23.77
2019-04-10T01:41:37.208Z,22.83
2019-04-10T01:44:05.738Z,23.40
2019-04-10T01:46:35.809Z,24.37
2019-04-10T01:49:05.156Z,23.23
2019-04-10T01:51:33.768Z,24.30
2019-04-10T01:54:02.709Z,24.93
2019-04-10T01:56:33.708Z,24.00
2019-04-10T01:59:01.483Z,24.77
2019-04-10T02:01:32.561Z,23.87
2019-04-10T02:04:01.280Z,24.40
2019-04-10T02:06:29.717Z,23.57
2019-04-10T02:08:58.373Z,24.27
2019-04-10T02:11:27.982Z,23.63
2019-04-10T02:13:56.844Z,24.40
2019-04-10T02:16:25.618Z,25.17
2019-04-10T02:18:54.152Z,23.00
2019-04-10T02:21:23.452Z,23.67
2019-04-10T02:23:52.410Z,24.90
2019-04-10T02:26:21.321Z,23.83
2019-04-10T02:28:51.266Z,24.77
2019-04-10T02:31:21.540Z,23.87
2019-04-10T02:33:51.615Z,25.53
2019-04-10T02:36:21.295Z,24.73
2019-04-10T02:39:03.319Z,24.23
2019-04-10T02:41:21.481Z,24.37
2019-04-10T02:43:51.271Z,24.37
2019-04-10T02:46:19.913Z,25.27
2019-04-10T02:48:49.894Z,25.00
2019-04-10T02:51:19.970Z,24.80
2019-04-10T02:53:50.197Z,24.80
2019-04-10T02:56:20.709Z,23.83
2019-04-10T02:59:09.425Z,23.87
2019-04-10T03:01:39.792Z,23.97
2019-04-10T03:04:09.778Z,24.13
2019-04-10T03:06:39.573Z,24.30
2019-04-10T03:09:26.139Z,24.17
2019-04-10T03:11:39.625Z,24.80
2019-04-10T03:14:08.278Z,24.43
2019-04-10T03:16:37.607Z,25.30
2019-04-10T03:19:06.121Z,24.43
2019-04-10T03:21:35.430Z,25.00
2019-04-10T03:24:10.332Z,24.07
2019-04-10T03:26:39.485Z,25.20
2019-04-10T03:29:07.971Z,26.70
2019-04-10T03:31:36.870Z,24.30
2019-04-10T03:36:53.801Z,25.63
2019-04-10T03:39:22.304Z,23.63
2019-04-10T03:41:50.746Z,23.53
2019-04-10T03:44:19.175Z,25.23
2019-04-10T03:46:47.600Z,25.27
2019-04-10T03:49:16.053Z,24.47
2019-04-10T03:51:44.997Z,24.17
2019-04-10T03:54:13.597Z,25.30
2019-04-10T03:56:42.318Z,24.37
2019-04-10T03:59:11.756Z,25.20
2019-04-10T04:01:40.945Z,24.83
2019-04-10T04:04:09.568Z,24.47
2019-04-10T04:06:38.012Z,23.57
2019-04-10T04:09:10.898Z,24.50
2019-04-10T04:11:37.836Z,24.53
2019-04-10T04:14:08.207Z,25.30
2019-04-10T04:16:37.330Z,25.10
2019-04-10T04:19:05.987Z,24.30
2019-04-10T04:21:34.705Z,25.73
2019-04-10T04:24:03.629Z,25.23
2019-04-10T04:26:32.230Z,24.33
2019-04-10T04:29:00.676Z,25.40
2019-04-10T04:31:29.212Z,25.83
2019-04-10T04:34:16.968Z,24.13
2019-04-10T04:36:45.399Z,37.87
2019-04-10T04:39:21.775Z,32.87
2019-04-10T04:41:44.334Z,29.00
2019-04-10T04:44:12.908Z,46.07
2019-04-10T04:46:41.337Z,35.50
2019-04-10T04:52:05.058Z,26.23
2019-04-10T04:54:33.512Z,26.47
2019-04-10T04:57:01.940Z,39.40
2019-04-10T04:59:30.395Z,39.33
2019-04-10T05:01:58.876Z,31.63
2019-04-10T05:04:27.307Z,25.63
2019-04-10T05:06:55.992Z,24.87
2019-04-10T05:09:31.101Z,24.23
2019-04-10T05:11:55.121Z,23.60
2019-04-10T05:14:23.827Z,22.90
2019-04-10T05:16:52.293Z,22.90
2019-04-10T05:19:40.545Z,34.63
2019-04-10T05:22:10.173Z,30.73
2019-04-10T05:24:38.734Z,26.27
2019-04-10T05:27:07.798Z,23.90
2019-04-10T05:29:36.655Z,22.87
2019-04-10T05:32:05.197Z,24.20
2019-04-10T05:34:33.882Z,23.30
2019-04-10T05:37:03.131Z,22.40
2019-04-10T05:39:40.549Z,31.97
2019-04-10T05:42:02.411Z,36.87
2019-04-10T05:44:31.886Z,23.50
2019-04-10T05:47:01.188Z,22.53
2019-04-10T05:49:29.745Z,22.63
2019-04-10T05:51:59.248Z,20.90
2019-04-10T05:54:28.013Z,21.93
2019-04-10T05:56:56.544Z,21.27
2019-04-10T05:59:25.000Z,20.23
2019-04-10T06:01:53.436Z,20.47
2019-04-10T06:04:22.134Z,19.83
2019-04-10T06:06:54.838Z,20.90
2019-04-10T06:09:23.455Z,21.50
2019-04-10T06:11:53.093Z,19.53
2019-04-10T06:14:22.059Z,19.30
2019-04-10T06:16:51.054Z,21.30
2019-04-10T06:19:21.923Z,19.77
2019-04-10T06:21:50.402Z,18.97
2019-04-10T06:24:18.945Z,19.17
2019-04-10T06:26:47.902Z,19.63
2019-04-10T06:29:17.085Z,18.30
2019-04-10T06:31:45.731Z,16.07
2019-04-10T06:34:16.160Z,16.43
2019-04-10T06:36:45.695Z,15.77
2019-04-10T06:39:14.373Z,19.50
2019-04-10T06:41:43.146Z,21.33
2019-04-10T06:44:11.888Z,19.60
2019-04-10T06:46:42.754Z,17.93
2019-04-10T06:49:12.201Z,14.63
2019-04-10T06:51:41.104Z,13.43
2019-04-10T06:54:11.463Z,13.40
2019-04-10T06:56:40.964Z,13.90
2019-04-10T06:59:09.599Z,14.33
2019-04-10T07:01:45.012Z,15.93
2019-04-10T07:04:09.771Z,15.83
2019-04-10T07:06:49.895Z,13.97
2019-04-10T07:09:11.651Z,19.17
2019-04-10T07:11:40.248Z,27.27
2019-04-10T07:14:12.609Z,12.93
2019-04-10T07:16:40.014Z,12.73
2019-04-10T07:19:11.495Z,16.87
2019-04-10T07:21:39.067Z,11.60
2019-04-10T07:24:09.506Z,10.07
2019-04-10T07:26:41.681Z,9.17
2019-04-10T07:29:08.822Z,9.20
2019-04-10T07:31:38.276Z,8.63
2019-04-10T07:34:08.833Z,8.10
2019-04-10T07:36:41.156Z,8.03
2019-04-10T07:39:07.906Z,8.97
2019-04-10T07:41:37.628Z,8.07
2019-04-10T07:44:06.322Z,8.83
2019-04-10T07:46:34.792Z,7.97
2019-04-10T07:49:04.148Z,8.70
2019-04-10T07:51:32.584Z,8.60
2019-04-10T07:54:01.930Z,9.47
2019-04-10T07:56:31.209Z,9.03
2019-04-10T07:59:00.556Z,8.70
2019-04-10T08:01:29.250Z,8.33
2019-04-10T08:03:57.806Z,9.07
2019-04-10T08:06:26.354Z,8.67
2019-04-10T08:08:55.503Z,11.93
2019-04-10T08:11:24.128Z,9.40
2019-04-10T08:13:53.261Z,9.10
2019-04-10T08:16:23.240Z,8.88
2019-04-10T08:18:52.164Z,9.03
2019-04-10T08:21:21.778Z,8.57
2019-04-10T08:23:51.474Z,8.90
2019-04-10T08:26:21.292Z,9.47
2019-04-10T08:28:49.830Z,8.70
2019-04-10T08:31:19.049Z,8.73
2019-04-10T08:33:47.581Z,8.90
2019-04-10T08:36:16.139Z,8.83
2019-04-10T08:38:44.622Z,9.30
2019-04-10T08:41:13.055Z,8.98
2019-04-10T08:43:41.723Z,8.93
2019-04-10T08:46:10.880Z,8.63
2019-04-10T08:48:39.436Z,9.20
2019-04-10T08:51:08.681Z,9.45
2019-04-10T08:53:38.288Z,8.33
2019-04-10T08:56:06.981Z,9.23
2019-04-10T08:58:35.420Z,8.78
2019-04-10T09:01:05.020Z,9.13
2019-04-10T09:03:33.546Z,7.95
2019-04-10T09:06:02.891Z,9.05
2019-04-10T09:08:31.588Z,9.38
2019-04-10T09:11:00.975Z,9.23
2019-04-10T09:13:30.576Z,8.30
2019-04-10T09:16:00.348Z,7.80
2019-04-10T09:18:29.491Z,7.80
2019-04-10T09:20:59.293Z,7.62
2019-04-10T09:23:37.925Z,8.73
2019-04-10T09:25:58.043Z,7.35
2019-04-10T09:28:26.853Z,7.95
2019-04-10T09:30:55.390Z,7.42
2019-04-10T09:33:27.568Z,8.98
2019-04-10T09:35:55.055Z,8.73
2019-04-10T09:38:23.780Z,8.78
2019-04-10T09:40:53.226Z,8.58
2019-04-10T09:43:21.722Z,8.55
2019-04-10T09:45:51.431Z,8.13
2019-04-10T09:48:20.008Z,7.83
2019-04-10T09:50:48.454Z,7.75
2019-04-10T09:53:17.150Z,7.28
2019-04-10T09:55:46.828Z,7.55
2019-04-10T09:58:15.364Z,7.42
2019-04-10T10:00:43.839Z,8.35
2019-04-10T10:03:12.321Z,8.63
2019-04-10T10:05:40.759Z,7.90
2019-04-10T10:08:09.234Z,8.18
2019-04-10T10:10:39.841Z,8.00
2019-04-10T10:15:37.650Z,7.03
2019-04-10T10:18:06.231Z,7.30
2019-04-10T10:20:35.595Z,7.10
2019-04-10T10:23:05.326Z,8.50
2019-04-10T10:25:33.943Z,9.30
2019-04-10T10:28:02.872Z,7.90
2019-04-10T10:30:31.672Z,7.72
2019-04-10T10:33:00.106Z,7.60
2019-04-10T10:35:29.325Z,8.75
2019-04-10T10:37:58.845Z,7.65
2019-04-10T10:40:27.736Z,7.20
2019-04-10T10:42:56.333Z,7.70
2019-04-10T10:45:25.030Z,8.13
2019-04-10T10:47:54.672Z,7.60
2019-04-10T10:50:23.626Z,8.40
2019-04-10T10:52:52.237Z,13.10
2019-04-10T10:55:21.285Z,9.18
2019-04-10T10:57:49.912Z,9.80
2019-04-10T11:00:19.284Z,8.88
2019-04-10T11:02:47.728Z,9.00
2019-04-10T11:05:16.967Z,9.35
2019-04-10T11:07:47.008Z,9.03
2019-04-10T11:10:22.064Z,8.85
2019-04-10T11:12:46.964Z,8.93
2019-04-10T11:15:16.248Z,8.70
2019-04-10T11:17:46.057Z,9.18
2019-04-10T11:20:15.280Z,8.43
2019-04-10T11:22:44.686Z,8.88
2019-04-10T11:25:13.617Z,8.43
2019-04-10T11:27:42.497Z,8.90
2019-04-10T11:30:12.520Z,9.28
2019-04-10T11:32:42.242Z,9.90
2019-04-10T11:35:11.191Z,9.93
2019-04-10T11:37:44.410Z,9.30
2019-04-10T11:40:12.194Z,8.43
2019-04-10T11:42:40.531Z,9.03
2019-04-10T11:45:10.728Z,9.50
2019-04-10T11:47:39.586Z,8.70
2019-04-10T11:50:13.564Z,8.83
2019-04-10T11:52:44.739Z,8.40
2019-04-10T11:55:13.731Z,9.13
2019-04-10T11:57:42.137Z,8.48
2019-04-10T12:00:15.201Z,10.63
2019-04-10T12:02:43.976Z,9.45
2019-04-10T12:05:18.393Z,9.38
2019-04-10T12:08:09.574Z,8.50
2019-04-10T12:12:43.802Z,9.68
2019-04-10T12:15:12.357Z,9.60
2019-04-10T12:17:42.992Z,9.60
2019-04-10T12:20:11.672Z,9.68
2019-04-10T12:22:40.689Z,9.33
2019-04-10T12:25:10.233Z,10.75
2019-04-10T12:27:39.076Z,9.60
2019-04-10T12:30:11.505Z,10.28
2019-04-10T12:32:40.985Z,10.03
2019-04-10T12:35:10.854Z,9.80
2019-04-10T12:37:39.535Z,11.75
2019-04-10T12:40:09.759Z,10.75
2019-04-10T12:42:38.800Z,11.30
2019-04-10T12:45:08.270Z,11.73
2019-04-10T12:47:37.710Z,10.08
2019-04-10T12:50:09.423Z,9.83
2019-04-10T12:52:38.779Z,9.13
2019-04-10T12:55:08.119Z,9.55
2019-04-10T12:57:37.066Z,9.98
2019-04-10T13:00:11.711Z,10.98
2019-04-10T13:02:40.772Z,10.53
2019-04-10T13:05:11.249Z,10.10
2019-04-10T13:07:39.996Z,9.48
2019-04-10T13:10:08.837Z,9.43
2019-04-10T13:12:37.665Z,9.85
2019-04-10T13:15:10.939Z,9.85
2019-04-10T13:17:40.673Z,10.85
2019-04-10T13:20:11.464Z,9.65
2019-04-10T13:22:40.187Z,10.78
2019-04-10T13:25:10.280Z,10.60
2019-04-10T13:27:39.063Z,10.08
2019-04-10T13:30:11.664Z,9.88
2019-04-10T13:32:40.454Z,9.70
2019-04-10T13:35:10.203Z,8.95
2019-04-10T13:37:38.763Z,9.85
2019-04-10T13:40:07.967Z,9.03
2019-04-10T13:42:37.160Z,8.95
2019-04-10T13:45:07.948Z,9.20
2019-04-10T13:47:36.613Z,9.33
2019-04-10T13:50:09.192Z,9.18
2019-04-10T13:52:40.452Z,10.00
2019-04-10T13:55:10.202Z,9.30
2019-04-10T13:57:39.281Z,9.88
2019-04-10T14:00:11.294Z,8.58
2019-04-10T14:02:39.932Z,9.30
2019-04-10T14:05:11.505Z,9.13
2019-04-10T14:07:40.353Z,8.88
2019-04-10T14:10:10.487Z,9.93
2019-04-10T14:12:39.132Z,9.63
2019-04-10T14:15:08.113Z,10.25
2019-04-10T14:17:37.571Z,9.48
2019-04-10T14:20:06.939Z,9.00
2019-04-10T14:22:37.947Z,9.55
2019-04-10T14:25:09.486Z,9.60
2019-04-10T14:27:38.517Z,8.95
2019-04-10T14:30:11.198Z,9.83
2019-04-10T14:32:39.946Z,8.90
2019-04-10T14:35:09.863Z,9.35
2019-04-10T14:37:38.478Z,9.83
2019-04-10T14:40:09.025Z,9.78
2019-04-10T14:42:38.356Z,9.53
2019-04-10T14:45:07.602Z,10.43
2019-04-10T14:47:36.215Z,13.88
2019-04-10T14:50:05.907Z,11.63
2019-04-10T14:52:34.991Z,11.57
2019-04-10T14:55:04.034Z,9.73
2019-04-10T14:57:32.842Z,9.48
2019-04-10T15:00:01.364Z,9.60
2019-04-10T15:02:30.727Z,9.75
2019-04-10T15:04:59.553Z,9.53
2019-04-10T15:07:28.976Z,8.98
2019-04-10T15:09:57.498Z,9.45
2019-04-10T15:12:25.935Z,9.93
2019-04-10T15:14:54.438Z,8.73
2019-04-10T15:17:23.139Z,9.68
2019-04-10T15:19:52.608Z,8.85
2019-04-10T15:22:21.919Z,9.90
2019-04-10T15:24:50.355Z,9.73
2019-04-10T15:27:19.496Z,9.98
2019-04-10T15:29:49.008Z,8.58
2019-04-10T15:32:17.725Z,9.15
2019-04-10T15:34:46.159Z,8.93
2019-04-10T15:37:15.203Z,8.53
2019-04-10T15:39:44.813Z,9.60
2019-04-10T15:42:14.226Z,9.30
2019-04-10T15:44:42.842Z,8.45
2019-04-10T15:47:18.297Z,9.25
2019-04-10T15:49:41.451Z,7.95
2019-04-10T15:52:10.098Z,8.88
2019-04-10T15:54:38.607Z,8.65
2019-04-10T15:57:07.105Z,9.83
2019-04-10T15:59:36.556Z,8.80
2019-04-10T16:02:05.698Z,8.70
2019-04-10T16:04:34.268Z,8.45
2019-04-10T16:07:02.780Z,8.55
2019-04-10T16:09:43.706Z,8.53
2019-04-10T16:12:03.352Z,8.30
2019-04-10T16:14:32.961Z,8.33
2019-04-10T16:17:09.272Z,8.25
2019-04-10T16:19:39.340Z,7.75
2019-04-10T16:22:09.495Z,7.70
2019-04-10T16:24:38.832Z,7.45
2019-04-10T16:27:07.632Z,8.03
2019-04-10T16:29:36.503Z,8.08
2019-04-10T16:32:06.395Z,8.50
2019-04-10T16:34:34.812Z,7.30
2019-04-10T16:37:03.252Z,8.15
2019-04-10T16:39:31.692Z,6.75
2019-04-10T16:42:00.135Z,7.03
2019-04-10T16:44:28.963Z,7.58
2019-04-10T16:46:57.515Z,7.40
2019-04-10T16:49:25.936Z,8.08
2019-04-10T16:51:54.508Z,7.92
2019-04-10T16:54:22.992Z,7.30
2019-04-10T16:56:51.432Z,7.47
2019-04-10T16:59:19.886Z,7.33
2019-04-10T17:01:48.311Z,7.05
2019-04-10T17:04:16.843Z,7.67
2019-04-10T17:06:46.312Z,8.33
2019-04-10T17:09:16.610Z,8.23
2019-04-10T17:11:45.251Z,8.08
2019-04-10T17:14:33.236Z,7.35
2019-04-10T17:17:02.153Z,7.30
2019-04-10T17:19:31.906Z,8.05
2019-04-10T17:22:00.927Z,7.47
2019-04-10T17:24:29.406Z,7.58
2019-04-10T17:26:59.255Z,7.17
2019-04-10T17:29:27.800Z,7.78
2019-04-10T17:31:57.111Z,7.08
2019-04-10T17:34:25.899Z,7.10
2019-04-10T17:36:57.033Z,7.80
2019-04-10T17:39:27.059Z,7.72
2019-04-10T17:41:55.896Z,7.03
2019-04-10T17:44:25.597Z,7.37
2019-04-10T17:46:54.145Z,7.00
2019-04-10T17:49:23.417Z,7.50
2019-04-10T17:51:52.360Z,7.37
2019-04-10T17:54:20.897Z,7.45
2019-04-10T17:56:50.564Z,7.15
2019-04-10T17:59:38.580Z,7.67
2019-04-10T18:02:09.543Z,8.38
2019-04-10T18:04:38.161Z,7.10
2019-04-10T18:07:06.606Z,32.55
2019-04-10T18:09:35.339Z,45.70
2019-04-10T18:12:04.313Z,15.38
2019-04-10T18:14:36.344Z,14.18
2019-04-10T18:17:03.045Z,14.87
2019-04-10T18:19:32.385Z,11.05
2019-04-10T18:22:01.006Z,25.15
2019-04-10T18:24:30.416Z,13.53
2019-04-10T18:27:00.022Z,11.22
2019-04-10T18:29:29.161Z,8.23
2019-04-10T18:32:00.118Z,8.85
2019-04-10T18:34:27.744Z,8.45
2019-04-10T18:36:56.536Z,9.95
2019-04-10T18:39:26.138Z,10.40
2019-04-10T18:41:54.669Z,10.20
2019-04-10T18:44:23.121Z,8.75
2019-04-10T18:46:52.212Z,8.38
2019-04-10T18:49:21.118Z,7.90
2019-04-10T18:51:50.040Z,21.07
2019-04-10T18:54:37.960Z,48.52
2019-04-10T18:57:07.386Z,19.62
2019-04-10T18:59:49.131Z,10.40
2019-04-10T19:02:25.509Z,10.40
2019-04-10T19:05:05.606Z,8.78
2019-04-10T19:07:34.341Z,30.23
2019-04-10T19:10:04.211Z,16.60
2019-04-10T19:12:32.920Z,15.30
2019-04-10T19:15:01.351Z,10.30
2019-04-10T19:17:30.916Z,8.03
2019-04-10T19:19:59.595Z,8.35
2019-04-10T19:22:28.535Z,7.78
2019-04-10T19:24:57.059Z,8.30
2019-04-10T19:27:26.617Z,7.60
2019-04-10T19:29:55.261Z,8.13
2019-04-10T19:32:29.974Z,7.67
2019-04-10T19:34:59.438Z,8.10
2019-04-10T19:37:28.429Z,7.87
2019-04-10T19:39:58.378Z,8.00
2019-04-10T19:42:27.150Z,8.48
2019-04-10T19:44:55.636Z,8.13
2019-04-10T19:47:26.321Z,8.03
2019-04-10T19:49:55.126Z,33.87
2019-04-10T19:52:24.407Z,51.37
2019-04-10T19:54:53.391Z,55.87
2019-04-10T19:57:22.263Z,16.70
2019-04-10T19:59:52.237Z,9.88
2019-04-10T20:02:20.817Z,9.05
2019-04-10T20:04:50.546Z,9.37
2019-04-10T20:07:19.138Z,9.20
2019-04-10T20:09:48.572Z,9.77
2019-04-10T20:12:18.122Z,9.07
2019-04-10T20:14:46.683Z,8.50
2019-04-10T20:17:15.634Z,8.30
2019-04-10T20:19:44.231Z,8.37
2019-04-10T20:22:12.975Z,7.53
2019-04-10T20:24:41.413Z,7.13
2019-04-10T20:27:09.990Z,7.60
2019-04-10T20:29:41.918Z,7.07
2019-04-10T20:32:11.496Z,6.90
2019-04-10T20:34:40.497Z,7.70
2019-04-10T20:37:10.294Z,13.07
2019-04-10T20:39:39.242Z,13.53
2019-04-10T20:42:07.817Z,8.20
2019-04-10T20:44:36.567Z,7.27
2019-04-10T20:47:05.187Z,7.20
2019-04-10T20:49:34.956Z,7.10
2019-04-10T20:52:04.213Z,7.63
2019-04-10T20:54:32.976Z,7.63
2019-04-10T20:57:01.434Z,8.53
2019-04-10T20:59:30.580Z,7.77
2019-04-10T21:01:59.912Z,8.13
2019-04-10T21:04:29.605Z,7.80
2019-04-10T21:06:58.607Z,8.03
2019-04-10T21:09:27.783Z,7.60
2019-04-10T21:12:18.081Z,7.97
2019-04-10T21:14:45.886Z,8.50
2019-04-10T21:17:17.076Z,8.57
2019-04-10T21:19:45.507Z,8.40
2019-04-10T21:22:14.000Z,20.67
2019-04-10T21:24:43.418Z,16.73
2019-04-10T21:27:13.196Z,9.13
2019-04-10T21:29:46.522Z,9.13
2019-04-10T21:32:22.540Z,9.63
2019-04-10T21:34:53.545Z,7.90
2019-04-10T21:37:22.331Z,8.33
2019-04-10T21:39:52.206Z,8.43
2019-04-10T21:42:23.578Z,8.07
2019-04-10T21:44:51.354Z,8.50
2019-04-10T21:47:19.832Z,8.60
2019-04-10T21:49:48.469Z,8.67
2019-04-10T21:52:16.983Z,8.90
2019-04-10T21:54:51.111Z,8.33
2019-04-10T21:57:16.090Z,15.47
2019-04-10T22:02:48.697Z,9.27
2019-04-10T22:05:17.418Z,8.63
2019-04-10T22:07:48.239Z,9.53
2019-04-10T22:10:37.269Z,8.77
2019-04-10T22:13:05.914Z,9.07
2019-04-10T22:15:37.212Z,8.93
2019-04-10T22:18:07.154Z,9.50
2019-04-10T22:20:36.077Z,8.77
2019-04-10T22:23:04.723Z,9.10
2019-04-10T22:25:33.192Z,8.57
2019-04-10T22:28:01.641Z,8.60
2019-04-10T22:30:30.072Z,9.07
2019-04-10T22:32:59.726Z,8.50
2019-04-10T22:35:34.028Z,9.47
2019-04-10T22:38:02.676Z,8.43
2019-04-10T22:40:31.714Z,9.00
2019-04-10T22:43:00.172Z,8.93
2019-04-10T22:45:48.691Z,9.00
2019-04-10T22:48:17.243Z,8.90
2019-04-10T22:50:45.679Z,8.73
2019-04-10T22:53:15.086Z,8.53
2019-04-10T22:55:44.408Z,8.27
2019-04-10T22:58:13.123Z,8.27
2019-04-10T23:00:41.813Z,8.60
2019-04-10T23:03:11.445Z,7.97
2019-04-10T23:05:40.656Z,8.53
2019-04-10T23:08:09.459Z,8.87
2019-04-10T23:10:37.979Z,8.20
2019-04-10T23:13:08.738Z,8.73
2019-04-10T23:15:37.739Z,8.13
2019-04-10T23:18:07.464Z,8.10
2019-04-10T23:20:36.308Z,8.23
2019-04-10T23:23:04.927Z,8.03
2019-04-10T23:25:34.332Z,8.50
2019-04-10T23:28:03.124Z,8.90
2019-04-10T23:30:31.638Z,8.87
2019-04-10T23:33:00.064Z,8.40
2019-04-10T23:35:29.441Z,8.80
2019-04-10T23:37:59.386Z,9.17
2019-04-10T23:40:29.192Z,8.70
2019-04-10T23:43:07.788Z,8.43
2019-04-10T23:45:27.930Z,8.67
2019-04-10T23:47:56.351Z,8.57
2019-04-10T23:50:26.002Z,8.73
2019-04-10T23:52:54.576Z,9.23
2019-04-10T23:55:42.725Z,8.23
2019-04-10T23:58:11.345Z,8.67
